Time;durP1;ratioP1;P1;durP2;ratioP2;P2;SDS_P1;SDS_P2;PMS_P1;PMS_P2;Temp;Humidity;BMP_temperature;BMP_pressure;BME280_temperature;BME280_humidity;BME280_pressure;Samples;Min_cycle;Max_cycle;Signal;HPM_P1;HPM_P2
2022/07/11 00:00:49;;;;;;;6.32;6.03;;;;;;;17.68;84.13;101818.25;6025902;23;20913;-69
2022/07/11 00:03:16;;;;;;;6.75;6.45;;;;;;;17.65;84.60;101856.47;6017274;23;20541;-69
2022/07/11 00:05:42;;;;;;;6.75;6.25;;;;;;;17.64;84.87;101806.13;6004994;23;20109;-70
2022/07/11 00:08:09;;;;;;;4.97;4.78;;;;;;;17.33;84.86;101755.03;6023281;23;20649;-69
2022/07/11 00:10:35;;;;;;;6.13;5.82;;;;;;;17.47;85.16;101778.03;6008425;23;20015;-69
2022/07/11 00:13:02;;;;;;;5.18;4.95;;;;;;;17.61;85.38;101803.69;6016875;23;20042;-69
2022/07/11 00:15:28;;;;;;;5.13;4.93;;;;;;;17.58;85.57;101807.41;6021602;23;20026;-69
2022/07/11 00:17:56;;;;;;;5.18;4.97;;;;;;;17.59;85.31;101801.13;6020710;23;20118;-69
2022/07/11 00:20:22;;;;;;;5.05;4.75;;;;;;;17.44;85.03;101779.09;6023832;23;20032;-69
2022/07/11 00:22:49;;;;;;;6.65;6.35;;;;;;;17.51;86.00;101809.56;6020538;23;20105;-69
2022/07/11 00:25:16;;;;;;;5.03;4.82;;;;;;;17.50;86.06;101810.53;6021326;23;20014;-70
2022/07/11 00:27:42;;;;;;;6.75;6.45;;;;;;;17.49;86.29;101802.66;6008301;23;20026;-69
2022/07/11 00:30:16;;;;;;;4.85;4.65;;;;;;;17.49;86.72;101803.50;6042081;23;20072;-71
2022/07/11 00:32:42;;;;;;;6.50;6.20;;;;;;;17.34;86.57;101780.63;6021156;23;20057;-68
2022/07/11 00:35:09;;;;;;;5.05;4.85;;;;;;;17.41;86.80;101792.53;6045819;23;20133;-69
2022/07/11 00:37:36;;;;;;;5.55;5.32;;;;;;;17.44;86.00;101826.84;6022686;23;20056;-69
2022/07/11 00:40:03;;;;;;;5.70;5.40;;;;;;;17.45;86.70;101793.19;6046219;23;20420;-69
2022/07/11 00:42:29;;;;;;;5.50;5.00;;;;;;;17.26;87.22;101774.91;6024676;23;20093;-69
2022/07/11 00:44:56;;;;;;;5.25;5.05;;;;;;;17.44;86.78;101796.78;6030636;23;20183;-69
2022/07/11 00:47:22;;;;;;;5.00;4.80;;;;;;;17.34;86.93;101767.34;6028950;23;20017;-69
2022/07/11 00:49:49;;;;;;;6.30;6.00;;;;;;;17.15;87.33;101749.94;6026095;23;20021;-68
2022/07/11 00:52:15;;;;;;;5.13;4.93;;;;;;;17.18;87.25;101756.00;6024481;23;20573;-70
2022/07/11 00:54:44;;;;;;;6.90;6.60;;;;;;;17.20;87.95;101773.53;6022842;23;20114;-68
2022/07/11 00:57:11;;;;;;;5.20;4.82;;;;;;;17.28;88.50;101786.28;6017483;23;20042;-71
2022/07/11 00:59:38;;;;;;;6.30;6.00;;;;;;;17.13;88.77;101786.31;6004842;23;20024;-70
2022/07/11 01:02:05;;;;;;;5.20;5.00;;;;;;;16.94;89.06;101740.69;6021249;23;20018;-70
2022/07/11 01:04:32;;;;;;;4.93;4.72;;;;;;;16.94;89.16;101748.66;5990321;23;20398;-70
2022/07/11 01:06:58;;;;;;;5.10;4.90;;;;;;;17.20;89.78;101810.69;6024009;23;20022;-69
2022/07/11 01:09:25;;;;;;;5.30;5.00;;;;;;;16.99;90.37;101777.53;6024364;23;20151;-69
2022/07/11 01:11:52;;;;;;;5.50;5.20;;;;;;;17.07;90.45;101786.69;6023439;23;20034;-70
2022/07/11 01:14:18;;;;;;;4.90;4.70;;;;;;;16.99;90.48;101788.13;6027160;23;20431;-69
2022/07/11 01:16:45;;;;;;;6.10;5.80;;;;;;;16.86;91.67;101852.53;6023398;23;20022;-69
2022/07/11 01:19:11;;;;;;;5.30;5.10;;;;;;;16.72;92.94;101779.09;6028954;23;20044;-69
2022/07/11 01:21:38;;;;;;;6.63;6.22;;;;;;;16.42;93.08;101754.44;6021384;23;20086;-71
2022/07/11 01:24:07;;;;;;;5.28;4.97;;;;;;;16.53;93.60;101786.44;5996546;23;20076;-69
2022/07/11 01:26:34;;;;;;;5.55;5.25;;;;;;;16.47;94.04;101792.09;6020104;23;20018;-69
2022/07/11 01:29:09;;;;;;;5.45;5.13;;;;;;;16.27;95.20;101794.13;5999161;23;20472;-70
2022/07/11 01:31:41;;;;;;;6.65;6.35;;;;;;;16.27;96.38;101783.53;6021835;23;20021;-71
2022/07/11 01:34:07;;;;;;;5.00;4.80;;;;;;;16.20;97.11;101787.50;6059690;23;20093;-69
2022/07/11 01:36:34;;;;;;;5.82;5.55;;;;;;;15.94;97.43;101767.84;6015476;23;20043;-69
2022/07/11 01:39:00;;;;;;;5.07;4.88;;;;;;;16.07;98.78;101782.06;6011956;23;20019;-68
2022/07/11 01:41:27;;;;;;;5.03;4.82;;;;;;;16.00;98.83;101790.47;6018311;23;20023;-69
2022/07/11 01:43:53;;;;;;;5.50;5.30;;;;;;;15.74;99.93;101756.59;5998067;23;20152;-68
2022/07/11 01:46:21;;;;;;;4.80;4.60;;;;;;;15.77;99.41;101765.28;5999727;23;20081;-68
2022/07/11 01:48:48;;;;;;;6.55;6.25;;;;;;;14.81;100.00;101625.13;5995304;23;20039;-69
2022/07/11 01:51:14;;;;;;;5.03;4.82;;;;;;;15.52;100.00;101862.75;6027955;23;20352;-68
2022/07/11 01:53:41;;;;;;;6.78;6.47;;;;;;;15.66;100.00;101802.94;5993261;23;20043;-68
2022/07/11 01:56:08;;;;;;;5.15;4.93;;;;;;;15.63;100.00;101803.94;6021891;23;20386;-68
2022/07/11 01:58:45;;;;;;;6.57;6.28;;;;;;;15.60;100.00;101808.56;6026905;23;20038;-69
2022/07/11 02:01:12;;;;;;;9.20;5.00;;;;;;;15.53;100.00;101800.09;6029519;23;20086;-70
2022/07/11 02:03:38;;;;;;;6.10;5.80;;;;;;;15.49;100.00;101807.34;6024396;23;20057;-68
2022/07/11 02:06:06;;;;;;;4.90;4.70;;;;;;;15.46;100.00;101810.16;6021724;23;20408;-70
2022/07/11 02:08:33;;;;;;;5.43;5.20;;;;;;;15.44;100.00;101837.66;6023797;23;20097;-69
2022/07/11 02:11:00;;;;;;;4.90;4.70;;;;;;;15.40;100.00;101821.09;6019195;23;20039;-69
2022/07/11 02:13:26;;;;;;;5.00;4.80;;;;;;;15.22;100.00;101785.06;6023700;23;20384;-68
2022/07/11 02:15:53;;;;;;;5.00;4.80;;;;;;;15.30;100.00;101814.59;6023273;23;20430;-69
2022/07/11 02:18:20;;;;;;;4.90;4.70;;;;;;;15.18;100.00;101812.63;6023758;23;20228;-68
2022/07/11 02:20:50;;;;;;;6.38;6.07;;;;;;;15.23;100.00;101818.50;6025640;23;20027;-69
2022/07/11 02:23:17;;;;;;;4.85;4.65;;;;;;;14.88;100.00;101777.16;6017700;23;20035;-69
2022/07/11 02:25:44;;;;;;;6.45;6.15;;;;;;;15.18;100.00;101831.13;6021494;23;20129;-69
2022/07/11 02:28:11;;;;;;;4.90;4.70;;;;;;;15.14;100.00;101818.06;6037434;23;20466;-68
2022/07/11 02:30:39;;;;;;;6.10;5.80;;;;;;;15.10;100.00;101815.66;6026399;23;20031;-69
2022/07/11 02:33:07;;;;;;;5.95;5.65;;;;;;;14.90;100.00;101809.63;6034206;23;20155;-68
2022/07/11 02:35:35;;;;;;;5.88;5.57;;;;;;;15.03;100.00;101819.56;6025654;23;20056;-69
2022/07/11 02:38:02;;;;;;;5.07;4.88;;;;;;;14.78;100.00;101778.56;6031341;23;20264;-68
2022/07/11 02:40:28;;;;;;;4.90;4.70;;;;;;;14.94;100.00;101816.47;6040079;23;20104;-68
2022/07/11 02:42:55;;;;;;;5.18;4.97;;;;;;;14.93;100.00;101814.78;6019955;23;20405;-70
2022/07/11 02:45:22;;;;;;;4.80;4.60;;;;;;;14.88;100.00;101830.00;6030865;23;20011;-69
2022/07/11 02:47:49;;;;;;;6.43;6.13;;;;;;;14.86;100.00;101809.88;6023085;23;20069;-67
2022/07/11 02:50:15;;;;;;;4.90;4.70;;;;;;;14.82;100.00;101803.06;6021887;23;20086;-68
2022/07/11 02:52:42;;;;;;;6.28;5.97;;;;;;;14.78;100.00;101797.06;6029027;23;20022;-71
2022/07/11 02:55:10;;;;;;;4.80;4.60;;;;;;;14.69;100.00;101797.53;6015182;23;20046;-69
2022/07/11 02:57:38;;;;;;;6.15;5.85;;;;;;;14.66;100.00;101803.84;6024207;23;20019;-69
2022/07/11 03:00:11;;;;;;;4.85;4.65;;;;;;;14.54;100.00;101783.31;6000460;23;20112;-68
2022/07/11 03:02:38;;;;;;;;;;;;;;;14.69;100.00;101818.69;6020307;23;20600;-69
2022/07/11 03:05:05;;;;;;;4.85;4.65;;;;;;;14.56;100.00;101797.31;6033921;23;19926;-68
2022/07/11 03:07:31;;;;;;;4.80;4.60;;;;;;;14.66;100.00;101824.13;6025974;23;20090;-68
2022/07/11 03:09:58;;;;;;;4.90;4.70;;;;;;;14.27;100.00;101781.16;6018395;23;20483;-69
2022/07/11 03:12:25;;;;;;;4.80;4.60;;;;;;;14.59;100.00;101820.09;6026947;23;20045;-68
2022/07/11 03:14:51;;;;;;;6.07;5.78;;;;;;;14.44;100.00;101798.78;6015911;23;20415;-68
2022/07/11 03:17:18;;;;;;;5.00;4.80;;;;;;;14.58;100.00;101837.72;6027533;23;20460;-68
2022/07/11 03:19:46;;;;;;;6.68;6.38;;;;;;;14.58;100.00;101872.06;6021794;23;20035;-69
2022/07/11 03:22:14;;;;;;;4.90;4.70;;;;;;;14.39;100.00;101806.06;6025405;23;20074;-69
2022/07/11 03:24:41;;;;;;;6.45;6.15;;;;;;;14.56;100.00;101832.53;6019763;23;20027;-70
2022/07/11 03:27:08;;;;;;;5.60;5.30;;;;;;;14.55;100.00;101840.47;6039732;23;20030;-69
2022/07/11 03:29:39;;;;;;;6.30;6.00;;;;;;;14.54;100.00;101836.16;6037041;23;20035;-68
2022/07/11 03:32:06;;;;;;;4.80;4.60;;;;;;;14.55;100.00;101853.69;6007771;23;20058;-70
2022/07/11 03:34:32;;;;;;;5.20;4.93;;;;;;;14.53;100.00;101858.19;6007640;23;20105;-68
2022/07/11 03:36:59;;;;;;;4.88;4.68;;;;;;;14.53;100.00;101845.88;6009438;23;20007;-68
2022/07/11 03:39:26;;;;;;;4.93;4.72;;;;;;;14.49;100.00;101852.25;6036039;23;20358;-68
2022/07/11 03:41:53;;;;;;;4.78;4.57;;;;;;;14.53;100.00;101860.84;6005369;23;20142;-69
2022/07/11 03:44:19;;;;;;;4.60;4.40;;;;;;;14.53;100.00;101860.84;6024345;23;20026;-69
2022/07/11 03:46:46;;;;;;;6.55;6.25;;;;;;;14.55;100.00;101896.84;6028152;23;20082;-69
2022/07/11 03:49:12;;;;;;;4.70;4.50;;;;;;;14.56;100.00;101855.44;6026975;23;20091;-72
2022/07/11 03:51:39;;;;;;;5.60;5.40;;;;;;;14.38;100.00;101822.84;6022409;23;20019;-70
2022/07/11 03:54:05;;;;;;;5.28;5.07;;;;;;;14.64;100.00;101873.56;6024389;23;20018;-71
2022/07/11 03:56:32;;;;;;;4.78;4.57;;;;;;;14.73;100.00;101871.31;6021513;23;20017;-72
2022/07/11 03:58:58;;;;;;;5.13;4.93;;;;;;;14.82;100.00;101867.34;6029618;23;20068;-70
2022/07/11 04:01:25;;;;;;;4.78;4.57;;;;;;;14.88;100.00;101867.00;6032693;23;20448;-69
2022/07/11 04:03:51;;;;;;;5.35;5.15;;;;;;;14.99;100.00;101878.81;5988368;23;20320;-72
2022/07/11 04:06:18;;;;;;;4.80;4.60;;;;;;;14.84;100.00;101849.59;6025004;23;20043;-70
2022/07/11 04:08:44;;;;;;;6.00;5.70;;;;;;;14.99;100.00;101877.03;5986456;23;20198;-70
2022/07/11 04:11:11;;;;;;;5.10;4.90;;;;;;;15.16;100.00;101887.56;5998815;23;20019;-72
2022/07/11 04:13:37;;;;;;;5.68;5.43;;;;;;;14.68;100.00;101777.34;5988565;23;20088;-72
2022/07/11 04:16:04;;;;;;;5.05;4.85;;;;;;;15.06;100.00;101865.19;5994977;23;20106;-70
2022/07/11 04:18:31;;;;;;;4.90;4.70;;;;;;;15.42;100.00;101890.63;5997042;23;20081;-74
2022/07/11 04:20:58;;;;;;;4.80;4.60;;;;;;;15.47;100.00;101887.72;5995125;23;20011;-72
2022/07/11 04:23:31;;;;;;;4.90;4.70;;;;;;;15.51;100.00;101886.63;5996255;23;20437;-70
2022/07/11 04:25:57;;;;;;;4.90;4.70;;;;;;;15.54;100.00;101897.91;6005578;23;20089;-70
2022/07/11 04:28:24;;;;;;;4.80;4.60;;;;;;;15.48;100.00;101902.69;5988459;23;20287;-70
2022/07/11 04:30:50;;;;;;;5.75;5.45;;;;;;;15.45;100.00;101864.00;5997616;23;20050;-73
2022/07/11 04:33:17;;;;;;;4.70;4.50;;;;;;;15.42;100.00;101855.41;5996400;23;20015;-71
2022/07/11 04:35:43;;;;;;;6.47;6.18;;;;;;;15.86;100.00;101916.50;5999029;23;20015;-70
2022/07/11 04:38:10;;;;;;;4.82;4.53;;;;;;;15.71;100.00;101872.31;6016234;23;20038;-71
2022/07/11 04:40:36;;;;;;;4.80;4.60;;;;;;;16.03;100.00;101915.56;6007138;23;20236;-71
2022/07/11 04:43:04;;;;;;;4.93;4.72;;;;;;;15.91;100.00;101889.78;5997827;23;20030;-71
2022/07/11 04:45:31;;;;;;;4.80;4.60;;;;;;;16.18;100.00;101903.28;5965758;23;20024;-71
2022/07/11 04:48:01;;;;;;;5.05;4.85;;;;;;;16.17;100.00;101904.19;5998657;23;20035;-72
2022/07/11 04:50:28;;;;;;;4.90;4.70;;;;;;;16.19;100.00;101907.63;5994515;23;20083;-69
2022/07/11 04:52:55;;;;;;;4.60;4.40;;;;;;;16.05;100.00;101939.31;5996655;23;21191;-70
2022/07/11 04:55:21;;;;;;;5.30;5.03;;;;;;;16.21;100.00;101891.66;5994320;23;20113;-72
2022/07/11 04:57:48;;;;;;;6.18;5.88;;;;;;;16.11;100.00;101883.38;5988750;23;20023;-72
2022/07/11 05:00:15;;;;;;;4.82;4.53;;;;;;;15.18;100.00;101726.19;6017236;23;20177;-72
2022/07/11 05:02:42;;;;;;;6.35;6.05;;;;;;;16.23;100.00;101908.31;5987636;23;20087;-72
2022/07/11 05:05:08;;;;;;;5.30;5.00;;;;;;;16.21;100.00;101895.13;6010822;23;20222;-72
2022/07/11 05:07:35;;;;;;;5.05;4.85;;;;;;;16.28;100.00;101909.75;6028719;23;20345;-72
2022/07/11 05:10:03;;;;;;;5.00;4.80;;;;;;;16.28;100.00;101973.34;5993554;23;20100;-72
2022/07/11 05:12:30;;;;;;;5.70;5.40;;;;;;;16.14;100.00;101885.84;6023906;23;20044;-72
2022/07/11 05:14:58;;;;;;;5.00;4.80;;;;;;;16.27;100.00;101891.28;5990985;23;20042;-72
2022/07/11 05:17:27;;;;;;;4.78;4.57;;;;;;;16.37;100.00;101900.41;6032517;23;20025;-72
2022/07/11 05:19:54;;;;;;;5.03;4.82;;;;;;;16.43;100.00;101923.06;6020405;23;20113;-71
2022/07/11 05:22:21;;;;;;;5.00;4.80;;;;;;;16.49;100.00;101922.72;6027889;23;20007;-71
2022/07/11 05:24:47;;;;;;;6.18;5.88;;;;;;;16.29;100.00;101882.31;6030695;23;20095;-72
2022/07/11 05:27:14;;;;;;;4.70;4.50;;;;;;;16.61;100.00;101907.91;6033489;23;20045;-71
2022/07/11 05:29:41;;;;;;;6.10;5.80;;;;;;;16.69;100.00;101934.81;6042202;23;20018;-71
2022/07/11 05:32:08;;;;;;;4.80;4.60;;;;;;;16.68;100.00;101933.13;6034073;23;20452;-72
2022/07/11 05:34:35;;;;;;;5.68;5.43;;;;;;;16.58;100.00;101930.16;6035683;23;20035;-68
2022/07/11 05:37:02;;;;;;;5.07;4.82;;;;;;;16.71;100.00;101964.72;6030633;23;20914;-72
2022/07/11 05:39:28;;;;;;;4.80;4.60;;;;;;;16.71;100.00;101932.91;6037265;23;20046;-72
2022/07/11 05:41:55;;;;;;;5.00;4.80;;;;;;;16.90;100.00;101956.59;6029236;23;20612;-71
2022/07/11 05:44:21;;;;;;;5.25;5.05;;;;;;;16.94;100.00;101947.53;6023075;23;20025;-71
2022/07/11 05:46:48;;;;;;;6.85;6.55;;;;;;;17.11;100.00;101959.78;6022139;23;20613;-72
2022/07/11 05:49:14;;;;;;;5.10;4.90;;;;;;;17.16;100.00;101957.72;6026697;23;20038;-72
2022/07/11 05:51:43;;;;;;;6.20;5.90;;;;;;;17.13;100.00;101934.00;6019597;23;20452;-72
2022/07/11 05:54:10;;;;;;;4.78;4.57;;;;;;;17.33;100.00;101959.34;6028024;23;20030;-72
2022/07/11 05:56:36;;;;;;;5.68;5.43;;;;;;;17.30;100.00;101941.81;6014470;23;20015;-73
2022/07/11 05:59:02;;;;;;;4.80;4.60;;;;;;;17.29;100.00;101931.28;6032437;23;20369;-72
2022/07/11 06:01:31;;;;;;;5.32;5.13;;;;;;;17.48;100.00;101936.31;6027620;23;20047;-73
2022/07/11 06:04:02;;;;;;;5.38;5.07;;;;;;;17.66;98.25;101955.56;5991593;23;20197;-73
2022/07/11 06:06:29;;;;;;;5.20;5.00;;;;;;;17.62;96.36;101949.59;5993413;23;20300;-72
2022/07/11 06:08:56;;;;;;;5.22;5.03;;;;;;;17.67;95.39;101968.75;6012615;23;20484;-72
2022/07/11 06:11:22;;;;;;;5.68;5.38;;;;;;;17.84;95.17;101927.03;6030409;23;20029;-71
2022/07/11 06:13:49;;;;;;;5.88;5.47;;;;;;;17.31;93.89;101853.28;6026692;23;20031;-70
2022/07/11 06:16:16;;;;;;;5.35;5.05;;;;;;;17.94;92.88;101936.09;6019948;23;20086;-70
2022/07/11 06:18:43;;;;;;;6.15;5.85;;;;;;;17.82;91.32;101912.97;5997171;23;20039;-70
2022/07/11 06:21:12;;;;;;;5.20;4.90;;;;;;;17.83;90.95;101902.28;6003191;23;20014;-70
2022/07/11 06:23:40;;;;;;;6.68;6.28;;;;;;;18.06;91.01;101945.09;6022903;23;20063;-71
2022/07/11 06:26:07;;;;;;;5.25;5.00;;;;;;;18.21;89.91;101949.44;6030419;23;20179;-70
2022/07/11 06:28:33;;;;;;;5.43;5.20;;;;;;;18.24;88.72;101940.41;6012434;23;20495;-70
2022/07/11 06:31:01;;;;;;;5.93;5.63;;;;;;;17.15;88.27;101776.44;6024624;23;20258;-70
2022/07/11 06:33:29;;;;;;;5.05;4.85;;;;;;;18.10;88.07;101943.94;5992207;23;20011;-69
2022/07/11 06:35:55;;;;;;;5.10;4.90;;;;;;;18.20;87.79;101942.44;6033566;23;20065;-70
2022/07/11 06:38:22;;;;;;;5.47;5.18;;;;;;;18.07;88.28;101938.84;6026686;23;20015;-70
2022/07/11 06:40:48;;;;;;;6.43;6.13;;;;;;;17.62;90.30;101924.84;6002736;23;20015;-70
2022/07/11 06:43:15;;;;;;;5.30;5.10;;;;;;;17.51;92.19;101915.75;6027744;23;20093;-70
2022/07/11 06:45:41;;;;;;;6.53;6.22;;;;;;;17.55;92.24;101929.69;5991278;23;20031;-71
2022/07/11 06:48:08;;;;;;;5.50;5.20;;;;;;;17.47;93.00;101910.72;6024058;23;20580;-70
2022/07/11 06:50:36;;;;;;;5.68;5.38;;;;;;;16.69;92.23;101799.63;6021027;23;20355;-70
2022/07/11 06:53:03;;;;;;;5.00;4.80;;;;;;;17.62;91.96;101911.56;6020406;23;20043;-70
2022/07/11 06:55:31;;;;;;;5.68;5.38;;;;;;;17.48;92.81;101897.38;5997986;23;20284;-73
2022/07/11 06:57:58;;;;;;;5.25;5.05;;;;;;;17.50;92.34;101905.22;6026494;23;20083;-70
2022/07/11 07:00:45;;;;;;;6.70;6.32;;;;;;;17.25;95.26;101885.50;6004965;23;20111;-70
2022/07/11 07:03:11;;;;;;;5.32;5.13;;;;;;;17.48;94.67;101883.22;6044658;23;20035;-71
2022/07/11 07:05:45;;;;;;;6.55;6.05;;;;;;;17.86;93.34;101917.16;6028074;23;20286;-71
2022/07/11 07:08:12;;;;;;;5.63;5.32;;;;;;;17.85;91.50;101884.44;6054999;23;20019;-70
2022/07/11 07:10:39;;;;;;;6.30;6.00;;;;;;;17.86;89.16;101870.22;6030222;23;20023;-70
2022/07/11 07:13:05;;;;;;;5.50;5.20;;;;;;;17.98;88.72;101910.22;6003238;23;20023;-70
2022/07/11 07:15:32;;;;;;;6.00;5.70;;;;;;;18.00;90.23;101890.59;6023010;23;20038;-72
2022/07/11 07:17:59;;;;;;;5.57;5.28;;;;;;;18.15;88.81;101931.25;6026017;23;20029;-74
2022/07/11 07:20:29;;;;;;;5.40;5.10;;;;;;;18.02;89.90;101912.59;6026383;23;20178;-72
2022/07/11 07:22:56;;;;;;;5.20;5.00;;;;;;;17.98;90.25;101924.38;6024874;23;20027;-72
2022/07/11 07:25:23;;;;;;;5.10;4.90;;;;;;;17.86;92.20;101928.66;6019575;23;20019;-73
2022/07/11 07:27:49;;;;;;;6.18;5.88;;;;;;;17.99;92.14;101920.75;6029414;23;20015;-72
2022/07/11 07:30:16;;;;;;;5.50;5.10;;;;;;;18.14;90.62;101934.84;6033625;23;20043;-73
2022/07/11 07:32:42;;;;;;;6.10;5.80;;;;;;;18.19;90.44;101940.72;6027287;23;20054;-72
2022/07/11 07:35:09;;;;;;;5.40;5.15;;;;;;;18.02;90.61;101911.72;6032707;23;20018;-72
2022/07/11 07:37:35;;;;;;;5.90;5.63;;;;;;;18.04;90.93;101925.75;6021869;23;20031;-71
2022/07/11 07:40:02;;;;;;;5.20;5.00;;;;;;;18.24;90.58;101938.63;5998873;23;20316;-72
2022/07/11 07:42:29;;;;;;;4.97;4.78;;;;;;;18.25;90.26;101928.84;6020615;23;20023;-72
2022/07/11 07:44:55;;;;;;;4.90;4.70;;;;;;;17.84;90.71;101892.50;6001904;23;20098;-72
2022/07/11 07:47:22;;;;;;;5.13;4.93;;;;;;;18.06;91.65;101923.84;6028616;23;20026;-73
2022/07/11 07:49:48;;;;;;;6.47;6.18;;;;;;;18.13;91.58;101922.53;6015967;23;20026;-72
2022/07/11 07:52:15;;;;;;;4.90;4.70;;;;;;;18.01;92.03;101926.81;6026505;23;20359;-72
2022/07/11 07:54:41;;;;;;;5.80;5.53;;;;;;;17.97;93.14;101921.81;6019042;23;20029;-72
2022/07/11 07:57:08;;;;;;;5.15;4.80;;;;;;;17.89;93.83;101925.78;6023910;23;20025;-72
2022/07/11 07:59:34;;;;;;;5.55;5.32;;;;;;;18.05;93.39;101943.41;6037247;23;20010;-72
2022/07/11 08:02:01;;;;;;;5.40;5.20;;;;;;;18.36;92.10;101936.09;6007081;23;20031;-73
2022/07/11 08:04:29;;;;;;;4.88;4.68;;;;;;;18.44;90.11;101905.44;6003632;23;20399;-72
2022/07/11 08:06:59;;;;;;;5.00;4.80;;;;;;;18.63;87.87;101907.69;6024582;23;20099;-72
2022/07/11 08:09:26;;;;;;;5.10;4.90;;;;;;;19.17;86.00;101945.81;6015501;23;20114;-72
2022/07/11 08:11:52;;;;;;;5.40;5.10;;;;;;;19.08;84.49;101923.31;6020017;23;20031;-72
2022/07/11 08:14:19;;;;;;;5.10;4.90;;;;;;;19.08;84.54;101942.84;6024032;23;20064;-72
2022/07/11 08:16:47;;;;;;;6.55;6.25;;;;;;;18.88;85.22;101911.38;6014982;23;20051;-72
2022/07/11 08:19:15;;;;;;;5.10;4.90;;;;;;;19.00;86.24;101920.34;6020558;23;20022;-71
2022/07/11 08:21:41;;;;;;;6.32;6.03;;;;;;;18.22;84.08;101780.22;6022349;23;20011;-71
2022/07/11 08:24:08;;;;;;;5.40;5.20;;;;;;;18.86;84.72;101908.84;6019234;23;20021;-71
2022/07/11 08:26:36;;;;;;;6.38;6.10;;;;;;;18.91;84.72;101921.84;5997207;23;20015;-66
2022/07/11 08:29:04;;;;;;;5.60;5.30;;;;;;;18.64;84.82;101874.84;6012688;23;20531;-72
2022/07/11 08:31:31;;;;;;;5.32;5.00;;;;;;;19.09;84.04;101941.00;6027703;23;20046;-70
2022/07/11 08:33:58;;;;;;;5.50;5.25;;;;;;;19.22;83.63;101920.56;6043598;23;20276;-73
2022/07/11 08:36:27;;;;;;;5.55;5.35;;;;;;;19.29;81.88;101899.72;6045139;23;20046;-72
2022/07/11 08:38:54;;;;;;;6.03;5.72;;;;;;;19.27;82.08;101918.44;6034102;23;20412;-71
2022/07/11 08:41:21;;;;;;;5.65;5.35;;;;;;;19.77;80.13;101944.31;6027006;23;20041;-70
2022/07/11 08:43:48;;;;;;;6.55;6.25;;;;;;;19.81;80.86;101959.13;6020429;23;20378;-71
2022/07/11 08:46:15;;;;;;;5.50;5.20;;;;;;;20.04;80.17;101952.13;6027961;23;20007;-71
2022/07/11 08:48:42;;;;;;;6.60;6.30;;;;;;;20.01;78.62;101958.53;6018368;23;20054;-70
2022/07/11 08:51:09;;;;;;;5.93;5.63;;;;;;;20.03;79.35;101935.31;6026488;23;20043;-70
2022/07/11 08:53:41;;;;;;;5.40;5.20;;;;;;;20.29;78.92;101953.88;6023581;23;20100;-70
2022/07/11 08:56:17;;;;;;;5.70;5.40;;;;;;;20.37;77.74;101934.66;6023530;23;20915;-71
2022/07/11 08:58:46;;;;;;;6.57;6.28;;;;;;;20.63;76.24;101960.25;6022085;23;20477;-71
2022/07/11 09:01:27;;;;;;;5.40;5.20;;;;;;;20.50;75.37;101943.41;6032357;23;20023;-72
2022/07/11 09:03:55;;;;;;;5.25;5.05;;;;;;;20.44;76.25;101941.22;6023746;23;20238;-70
2022/07/11 09:06:21;;;;;;;5.60;5.30;;;;;;;20.45;76.57;101918.94;6031649;23;20014;-70
2022/07/11 09:08:48;;;;;;;7.03;6.53;;;;;;;20.36;75.29;101932.94;6021606;23;20448;-69
2022/07/11 09:11:15;;;;;;;5.55;5.25;;;;;;;20.37;76.98;101967.50;6025577;23;20028;-70
2022/07/11 09:13:42;;;;;;;6.40;6.10;;;;;;;20.30;76.59;101945.75;6025610;23;20421;-71
2022/07/11 09:16:08;;;;;;;5.25;5.05;;;;;;;19.69;77.94;101924.38;6034802;23;20132;-71
2022/07/11 09:18:41;;;;;;;5.88;5.57;;;;;;;20.00;77.75;101971.97;6030695;23;20243;-73
2022/07/11 09:26:50;;;;;;;6.40;6.10;;;;;;;19.53;80.33;101947.72;5994408;23;20391;-74
2022/07/11 09:29:20;;;;;;;5.10;4.90;;;;;;;19.43;81.30;101947.50;6032894;23;20062;-74
2022/07/11 09:31:47;;;;;;;6.45;6.15;;;;;;;19.10;82.12;101916.97;6025613;23;20011;-71
2022/07/11 09:34:17;;;;;;;5.60;5.30;;;;;;;19.24;83.36;102008.28;6028673;23;20090;-70
2022/07/11 09:36:46;;;;;;;6.70;6.40;;;;;;;19.28;83.10;101977.84;5997894;23;20012;-70
2022/07/11 09:39:17;;;;;;;5.20;5.00;;;;;;;19.06;84.04;101991.75;6030618;23;20019;-70
2022/07/11 09:41:46;;;;;;;6.45;6.15;;;;;;;19.29;83.77;101969.75;5997675;23;20015;-73
2022/07/11 09:44:17;;;;;;;5.10;4.90;;;;;;;19.62;81.87;101978.19;6024790;23;20007;-70
2022/07/11 09:46:46;;;;;;;6.40;6.10;;;;;;;19.38;83.25;101957.63;6032423;23;20070;-69
2022/07/11 09:49:14;;;;;;;5.10;4.90;;;;;;;19.71;83.29;101966.91;6027928;23;20195;-70
2022/07/11 09:51:41;;;;;;;5.10;4.90;;;;;;;19.79;81.63;101929.94;6025450;23;20029;-73
2022/07/11 09:54:11;;;;;;;5.10;4.90;;;;;;;20.00;80.54;101948.00;6038620;23;20897;-70
2022/07/11 09:56:44;;;;;;;5.18;4.97;;;;;;;19.86;80.41;101930.31;6030541;23;20085;-70
2022/07/11 09:59:25;;;;;;;5.03;4.82;;;;;;;19.90;79.89;101905.16;6034847;23;20531;-70
2022/07/11 10:01:52;;;;;;;6.05;5.75;;;;;;;19.88;80.73;101923.06;6031112;23;20027;-71
2022/07/11 10:04:19;;;;;;;5.10;4.90;;;;;;;19.92;80.35;101924.56;6028411;23;20622;-71
2022/07/11 10:06:46;;;;;;;6.22;5.93;;;;;;;19.75;81.15;101908.97;6030782;23;20085;-70
2022/07/11 10:09:12;;;;;;;5.15;4.95;;;;;;;19.50;81.48;101847.63;6017178;23;20034;-70
2022/07/11 10:11:39;;;;;;;6.50;6.20;;;;;;;19.80;81.61;101910.31;5998777;23;20019;-71
2022/07/11 10:14:07;;;;;;;5.15;4.95;;;;;;;19.81;82.27;101906.69;6020044;23;20175;-71
2022/07/11 10:16:40;;;;;;;5.50;5.28;;;;;;;19.67;82.06;101905.00;5858430;23;20378;-73
2022/07/11 10:19:22;;;;;;;5.15;4.95;;;;;;;19.67;82.43;101904.16;6022318;23;20105;-70
2022/07/11 10:22:03;;;;;;;6.38;6.07;;;;;;;19.83;79.88;101909.25;6023856;23;20187;-71
2022/07/11 10:24:40;;;;;;;5.85;5.55;;;;;;;19.84;80.26;101909.13;6029409;23;20047;-71
2022/07/11 10:27:29;;;;;;;5.45;5.15;;;;;;;20.45;77.86;101938.44;6015188;23;20350;-71
2022/07/11 10:29:58;;;;;;;6.82;4.90;;;;;;;20.57;76.52;101936.69;6022389;23;20086;-71
2022/07/11 10:32:25;;;;;;;5.40;5.20;;;;;;;20.82;76.27;101950.84;6033677;23;20041;-71
2022/07/11 10:35:10;;;;;;;6.00;5.70;;;;;;;21.06;72.12;101930.28;6006739;23;20094;-71
2022/07/11 10:37:48;;;;;;;5.95;5.70;;;;;;;20.75;73.74;101921.13;6029325;23;20453;-71
2022/07/11 10:40:50;;;;;;;5.32;5.13;;;;;;;20.75;74.64;101928.25;6032005;23;20018;-71
2022/07/11 10:43:35;;;;;;;5.40;5.20;;;;;;;21.00;74.37;101933.44;6019623;23;20023;-75
2022/07/11 10:46:03;;;;;;;5.30;5.10;;;;;;;20.87;74.68;101928.19;5993332;23;20030;-71
2022/07/11 10:48:33;;;;;;;5.13;4.93;;;;;;;20.67;74.19;101916.38;6004309;23;20093;-71
2022/07/11 10:51:38;;;;;;;5.40;5.20;;;;;;;20.55;74.76;101900.41;6022094;23;20429;-71
2022/07/11 10:54:51;;;;;;;5.18;4.97;;;;;;;20.82;74.85;101929.50;6013098;23;20463;-71
2022/07/11 10:57:45;;;;;;;5.60;5.30;;;;;;;20.55;75.75;101988.41;5986664;23;20074;-71
2022/07/11 11:00:16;;;;;;;5.35;5.13;;;;;;;20.49;75.52;101968.41;6036690;23;20018;-71
2022/07/11 11:03:07;;;;;;;6.75;6.45;;;;;;;20.82;75.53;101974.88;6006740;23;20059;-72
2022/07/11 11:05:50;;;;;;;5.38;5.18;;;;;;;21.12;74.61;102004.56;6026078;23;20373;-73
2022/07/11 11:08:32;;;;;;;5.10;4.90;;;;;;;21.11;71.95;101997.53;6002997;23;20015;-73
2022/07/11 11:11:06;;;;;;;5.25;5.05;;;;;;;21.29;71.99;101989.94;6010691;23;20037;-73
2022/07/11 11:13:35;;;;;;;5.45;5.22;;;;;;;21.26;71.42;101949.25;6027957;23;20033;-72
2022/07/11 11:16:18;;;;;;;5.53;5.22;;;;;;;21.29;69.88;101939.22;6018698;23;20632;-73
2022/07/11 11:18:45;;;;;;;7.07;6.70;;;;;;;21.70;69.53;101980.53;6043028;23;20049;-71
2022/07/11 11:21:11;;;;;;;5.80;5.50;;;;;;;21.14;67.87;101838.94;6028925;23;20299;-73
2022/07/11 11:24:01;;;;;;;6.57;6.28;;;;;;;22.06;68.84;101965.19;5992994;23;20264;-71
2022/07/11 11:26:51;;;;;;;5.70;5.40;;;;;;;21.94;67.26;101917.22;6047140;23;20015;-73
2022/07/11 11:29:20;;;;;;;5.82;5.53;;;;;;;22.37;68.36;101936.00;6024420;23;20035;-72
2022/07/11 11:31:54;;;;;;;6.50;6.20;;;;;;;22.59;66.81;102132.19;6019525;23;20070;-71
2022/07/11 11:34:21;;;;;;;5.30;5.10;;;;;;;22.23;65.56;101942.44;6031646;23;20036;-72